| time (UTC) | temp F | wind direction | speed MPH | gust MPH | rain 1hr in | rain 24hr in | rain mn in | humidity % | barometer mb |
| 20260509173329 | 82 | 84 | 0.0 | 1.0 | 0.00 | 0.00 | 0.00 | 82 | 1013.1 |
| 20260509172825 | 81 | 66 | 0.0 | 0.0 | 0.00 | 0.00 | 0.00 | 82 | 1013.0 |
| 20260509172322 | 80 | 69 | 0.0 | 0.0 | 0.00 | 0.00 | 0.00 | 82 | 1013.1 |
| 20260509171818 | 81 | 77 | 0.0 | 0.0 | 0.00 | 0.00 | 0.00 | 82 | 1013.0 |
| 20260509171314 | 81 | 70 | 0.0 | 0.0 | 0.00 | 0.00 | 0.00 | 83 | 1013.0 |
| 20260509170810 | 80 | 56 | 0.0 | 1.0 | 0.00 | 0.00 | 0.00 | 82 | 1013.0 |
| 20260509170306 | 81 | 75 | 0.0 | 1.0 | 0.00 | 0.00 | 0.00 | 82 | 1012.9 |
| 20260509165806 | 80 | 65 | 0.0 | 0.0 | 0.00 | 0.00 | 0.00 | 85 | 1013.0 |
| 20260509165301 | 79 | 80 | 0.0 | 0.0 | 0.00 | 0.00 | 0.00 | 85 | 1013.2 |
| 20260509164757 | 79 | 65 | 0.0 | 0.0 | 0.00 | 0.00 | 0.00 | 86 | 1013.0 |
| 20260509164253 | 79 | 61 | 0.0 | 0.0 | 0.00 | 0.00 | 0.00 | 86 | 1013.2 |
| 20260509163750 | 79 | 66 | 0.0 | 0.0 | 0.00 | 0.00 | 0.00 | 86 | 1013.0 |
| 20260509163246 | 79 | 65 | 0.0 | 0.0 | 0.00 | 0.00 | 0.00 | 87 | 1013.1 |
| 20260509162745 | 78 | 66 | 0.0 | 0.0 | 0.00 | 0.00 | 0.00 | 87 | 1013.2 |
| 20260509162239 | 78 | 68 | 0.0 | 0.0 | 0.00 | 0.00 | 0.00 | 87 | 1013.0 |
| 20260509161735 | 78 | 75 | 0.0 | 0.0 | 0.00 | 0.00 | 0.00 | 88 | 1013.1 |
| 20260509161231 | 78 | 65 | 0.0 | 0.0 | 0.00 | 0.00 | 0.00 | 88 | 1013.2 |
| 20260509160726 | 78 | 65 | 0.0 | 0.0 | 0.00 | 0.00 | 0.00 | 88 | 1013.1 |
| 20260509160223 | 78 | 69 | 0.0 | 0.0 | 0.00 | 0.00 | 0.00 | 88 | 1013.0 |
| 20260509155718 | 78 | 66 | 0.0 | 0.0 | 0.00 | 0.00 | 0.00 | 88 | 1013.1 |
| 20260509155215 | 78 | 70 | 0.0 | 0.0 | 0.00 | 0.00 | 0.00 | 88 | 1013.1 |
| 20260509154711 | 78 | 80 | 0.0 | 1.0 | 0.00 | 0.00 | 0.00 | 89 | 1013.0 |
| 20260509154208 | 78 | 58 | 0.0 | 0.0 | 0.00 | 0.00 | 0.00 | 88 | 1012.9 |
| 20260509153705 | 78 | 70 | 0.0 | 1.0 | 0.00 | 0.00 | 0.00 | 89 | 1013.1 |
| 20260509153202 | 78 | 65 | 0.0 | 0.0 | 0.00 | 0.00 | 0.00 | 89 | 1013.1 |
| 20260509152658 | 77 | 66 | 0.0 | 0.0 | 0.00 | 0.00 | 0.00 | 90 | 1013.0 |
| 20260509152155 | 77 | 63 | 0.0 | 1.0 | 0.00 | 0.00 | 0.00 | 89 | 1013.2 |
| 20260509151651 | 77 | 65 | 0.0 | 0.0 | 0.00 | 0.00 | 0.00 | 90 | 1013.0 |
| 20260509151149 | 77 | 71 | 0.0 | 1.0 | 0.00 | 0.00 | 0.00 | 91 | 1013.1 |
| 20260509150647 | 76 | 49 | 1.0 | 1.0 | 0.00 | 0.00 | 0.00 | 91 | 1013.1 |
| 20260509150144 | 76 | 78 | 1.0 | 2.0 | 0.00 | 0.00 | 0.00 | 91 | 1013.1 |
| 20260509145640 | 76 | 66 | 0.0 | 0.0 | 0.00 | 0.00 | 0.00 | 92 | 1012.8 |
| 20260509145136 | 76 | 65 | 0.0 | 2.0 | 0.00 | 0.00 | 0.00 | 92 | 1012.6 |
| 20260509144633 | 75 | 63 | 0.0 | 0.0 | 0.00 | 0.00 | 0.00 | 92 | 1012.8 |
| 20260509144130 | 75 | 64 | 0.0 | 0.0 | 0.00 | 0.00 | 0.00 | 92 | 1012.3 |
| 20260509143627 | 75 | 136 | 1.0 | 3.0 | 0.00 | 0.00 | 0.00 | 92 | 1012.2 |
| 20260509143124 | 75 | 73 | 0.0 | 1.0 | 0.00 | 0.00 | 0.00 | 93 | 1012.0 |
| 20260509142619 | 75 | 80 | 2.0 | 4.0 | 0.00 | 0.00 | 0.00 | 93 | 1011.7 |
| 20260509142116 | 75 | 45 | 0.0 | 1.0 | 0.00 | 0.00 | 0.00 | 94 | 1011.8 |
| 20260509141612 | 75 | 81 | 0.0 | 1.0 | 0.00 | 0.00 | 0.00 | 94 | 1012.3 |
| 20260509141109 | 75 | 74 | 1.0 | 3.0 | 0.00 | 0.00 | 0.00 | 95 | 1012.0 |
| 20260509140606 | 75 | 38 | 0.0 | 2.0 | 0.00 | 0.00 | 0.00 | 95 | 1011.8 |
| 20260509140104 | 75 | 89 | 0.0 | 2.0 | 0.00 | 0.00 | 0.00 | 95 | 1011.7 |
| 20260509135601 | 75 | 73 | 0.0 | 1.0 | 0.00 | 0.00 | 0.00 | 96 | 1011.7 |
| 20260509135058 | 74 | 119 | 1.0 | 2.0 | 0.00 | 0.00 | 0.00 | 96 | 1011.9 |
| 20260509134555 | 74 | 72 | 1.0 | 2.0 | 0.00 | 0.00 | 0.00 | 96 | 1012.3 |
| 20260509134053 | 74 | 86 | 1.0 | 2.0 | 0.00 | 0.00 | 0.00 | 97 | 1012.2 |
| 20260509133549 | 74 | 93 | 1.0 | 2.0 | 0.00 | 0.00 | 0.00 | 97 | 1011.9 |
| 20260509133047 | 73 | 87 | 1.0 | 3.0 | 0.00 | 0.00 | 0.00 | 97 | 1012.0 |
| 20260509132545 | 73 | 75 | 0.0 | 1.0 | 0.00 | 0.00 | 0.00 | 98 | 1011.9 |
| 20260509132043 | 73 | 66 | 0.0 | 1.0 | 0.00 | 0.00 | 0.00 | 98 | 1011.9 |
| 20260509131539 | 73 | 95 | 2.0 | 4.0 | 0.00 | 0.00 | 0.00 | 98 | 1012.0 |
| 20260509131036 | 73 | 72 | 0.0 | 1.0 | 0.00 | 0.00 | 0.00 | 98 | 1012.2 |
| 20260509130531 | 73 | 62 | 0.0 | 0.0 | 0.00 | 0.00 | 0.00 | 98 | 1012.1 |
| 20260509130029 | 73 | 64 | 0.0 | 1.0 | 0.00 | 0.00 | 0.00 | 99 | 1011.8 |
| 20260509125525 | 73 | 72 | 0.0 | 0.0 | 0.00 | 0.00 | 0.00 | 99 | 1011.8 |
| 20260509125022 | 73 | 82 | 2.0 | 2.0 | 0.00 | 0.00 | 0.00 | 99 | 1012.2 |
| 20260509124518 | 73 | 68 | 0.0 | 0.0 | 0.00 | 0.00 | 0.00 | 99 | 1011.8 |
| 20260509124016 | 73 | 75 | 0.0 | 1.0 | 0.00 | 0.00 | 0.00 | 99 | 1011.9 |
| 20260509123513 | 73 | 62 | 0.0 | 0.0 | 0.00 | 0.00 | 0.00 | 99 | 1011.7 |
| 20260509123009 | 73 | 67 | 0.0 | 0.0 | 0.00 | 0.00 | 0.00 | 99 | 1011.9 |
| 20260509122506 | 73 | 70 | 0.0 | 0.0 | 0.00 | 0.00 | 0.00 | 99 | 1011.8 |
| 20260509122003 | 73 | 62 | 0.0 | 0.0 | 0.00 | 0.00 | 0.00 | 99 | 1012.4 |
| 20260509121459 | 73 | 75 | 0.0 | 0.0 | 0.00 | 0.00 | 0.00 | 99 | 1012.2 |
| 20260509120958 | 73 | 56 | 0.0 | 0.0 | 0.00 | 0.00 | 0.00 | 99 | 1012.4 |
| 20260509120455 | 73 | 62 | 0.0 | 0.0 | 0.00 | 0.00 | 0.00 | 99 | 1012.5 |
| 20260509115953 | 73 | 60 | 0.0 | 0.0 | 0.00 | 0.00 | 0.00 | 99 | 1012.5 |
| 20260509115450 | 73 | 67 | 0.0 | 0.0 | 0.00 | 0.00 | 0.00 | 98 | 1012.3 |
| 20260509114948 | 73 | 60 | 0.0 | 0.0 | 0.00 | 0.00 | 0.00 | 98 | 1012.3 |
| 20260509114446 | 73 | 56 | 0.0 | 0.0 | 0.00 | 0.00 | 0.00 | 98 | 1012.5 |
| 20260509113945 | 73 | 67 | 0.0 | 0.0 | 0.00 | 0.00 | 0.00 | 98 | 1012.3 |
| 20260509113442 | 73 | 68 | 0.0 | 1.0 | 0.00 | 0.00 | 0.00 | 98 | 1012.6 |
| 20260509112938 | 73 | 54 | 0.0 | 1.0 | 0.00 | 0.00 | 0.00 | 98 | 1012.5 |
| 20260509112436 | 73 | 39 | 0.0 | 1.0 | 0.00 | 0.00 | 0.00 | 98 | 1012.5 |
| 20260509111932 | 73 | 63 | 0.0 | 0.0 | 0.00 | 0.00 | 0.00 | 98 | 1012.3 |
| 20260509111430 | 73 | 68 | 0.0 | 1.0 | 0.00 | 0.00 | 0.00 | 98 | 1012.1 |
| 20260509110927 | 73 | 64 | 1.0 | 1.0 | 0.00 | 0.00 | 0.00 | 98 | 1012.1 |
| 20260509110423 | 73 | 59 | 0.0 | 0.0 | 0.00 | 0.00 | 0.00 | 98 | 1012.2 |
| 20260509105921 | 73 | 65 | 0.0 | 1.0 | 0.00 | 0.00 | 0.00 | 98 | 1012.4 |
| 20260509105420 | 73 | 64 | 0.0 | 0.0 | 0.00 | 0.00 | 0.00 | 98 | 1012.3 |
| 20260509104916 | 73 | 56 | 0.0 | 0.0 | 0.00 | 0.00 | 0.00 | 98 | 1012.6 |
| 20260509104413 | 73 | 62 | 0.0 | 0.0 | 0.00 | 0.00 | 0.00 | 98 | 1012.3 |
| 20260509103911 | 73 | 66 | 0.0 | 0.0 | 0.00 | 0.00 | 0.00 | 98 | 1012.5 |
| 20260509103407 | 73 | 61 | 0.0 | 0.0 | 0.00 | 0.00 | 0.00 | 98 | 1012.6 |
| 20260509102906 | 73 | 69 | 0.0 | 0.0 | 0.00 | 0.00 | 0.00 | 98 | 1012.8 |
| 20260509102403 | 73 | 65 | 0.0 | 0.0 | 0.00 | 0.00 | 0.00 | 98 | 1012.7 |
| 20260509101859 | 73 | 65 | 0.0 | 0.0 | 0.00 | 0.00 | 0.00 | 98 | 1012.6 |
| 20260509101355 | 73 | 64 | 0.0 | 0.0 | 0.00 | 0.00 | 0.00 | 97 | 1012.6 |
| 20260509100853 | 73 | 64 | 0.0 | 0.0 | 0.00 | 0.00 | 0.00 | 97 | 1012.7 |
| 20260509100350 | 73 | 64 | 0.0 | 0.0 | 0.00 | 0.00 | 0.00 | 97 | 1012.4 |
| 20260509095846 | 73 | 63 | 0.0 | 0.0 | 0.00 | 0.00 | 0.00 | 97 | 1012.2 |
| 20260509095344 | 73 | 64 | 0.0 | 0.0 | 0.00 | 0.00 | 0.00 | 97 | 1012.3 |
| 20260509094841 | 73 | 65 | 0.0 | 0.0 | 0.00 | 0.00 | 0.00 | 97 | 1012.4 |
| 20260509094337 | 73 | 66 | 0.0 | 0.0 | 0.00 | 0.00 | 0.00 | 97 | 1012.1 |
| 20260509093835 | 73 | 67 | 0.0 | 1.0 | 0.00 | 0.00 | 0.00 | 97 | 1012.0 |
| 20260509093332 | 73 | 68 | 0.0 | 0.0 | 0.00 | 0.00 | 0.00 | 97 | 1011.5 |
| 20260509092831 | 73 | 74 | 0.0 | 1.0 | 0.00 | 0.00 | 0.00 | 97 | 1011.5 |
| 20260509092328 | 73 | 74 | 0.0 | 1.0 | 0.00 | 0.00 | 0.00 | 97 | 1011.9 |
| 20260509091826 | 73 | 68 | 0.0 | 0.0 | 0.00 | 0.00 | 0.00 | 97 | 1011.9 |
| 20260509091323 | 73 | 67 | 0.0 | 0.0 | 0.00 | 0.00 | 0.00 | 97 | 1011.9 |
| 20260509090820 | 73 | 62 | 0.0 | 0.0 | 0.00 | 0.00 | 0.00 | 97 | 1012.2 |
| 20260509090317 | 73 | 71 | 0.0 | 1.0 | 0.00 | 0.00 | 0.00 | 97 | 1012.0 |
| 20260509085814 | 73 | 66 | 0.0 | 0.0 | 0.00 | 0.00 | 0.00 | 97 | 1012.1 |
| 20260509085312 | 73 | 78 | 0.0 | 0.0 | 0.00 | 0.00 | 0.00 | 97 | 1012.2 |
| 20260509084808 | 73 | 65 | 0.0 | 0.0 | 0.00 | 0.00 | 0.00 | 97 | 1012.2 |
| 20260509084305 | 73 | 66 | 0.0 | 0.0 | 0.00 | 0.00 | 0.00 | 97 | 1012.5 |
| 20260509083803 | 73 | 65 | 0.0 | 0.0 | 0.00 | 0.00 | 0.00 | 97 | 1012.5 |
| 20260509083259 | 73 | 66 | 0.0 | 0.0 | 0.00 | 0.00 | 0.00 | 97 | 1012.3 |
| 20260509082756 | 73 | 65 | 0.0 | 0.0 | 0.00 | 0.00 | 0.00 | 97 | 1012.3 |
| 20260509082252 | 73 | 63 | 0.0 | 0.0 | 0.00 | 0.00 | 0.00 | 96 | 1012.5 |
| 20260509081749 | 73 | 62 | 0.0 | 1.0 | 0.00 | 0.00 | 0.00 | 96 | 1012.3 |
| 20260509081247 | 73 | 57 | 0.0 | 0.0 | 0.00 | 0.00 | 0.00 | 96 | 1012.4 |
| 20260509080745 | 73 | 69 | 0.0 | 1.0 | 0.00 | 0.00 | 0.00 | 96 | 1012.3 |
| 20260509080242 | 73 | 68 | 0.0 | 0.0 | 0.00 | 0.00 | 0.00 | 96 | 1012.4 |
| 20260509075741 | 73 | 69 | 0.0 | 1.0 | 0.00 | 0.00 | 0.00 | 96 | 1012.4 |
| 20260509075238 | 73 | 64 | 0.0 | 0.0 | 0.00 | 0.00 | 0.00 | 96 | 1012.2 |
| 20260509074734 | 73 | 68 | 0.0 | 0.0 | 0.00 | 0.00 | 0.00 | 96 | 1012.3 |
| 20260509074232 | 73 | 68 | 0.0 | 0.0 | 0.00 | 0.00 | 0.00 | 96 | 1012.3 |
| 20260509073728 | 73 | 77 | 0.0 | 2.0 | 0.00 | 0.00 | 0.00 | 96 | 1012.4 |
| 20260509073225 | 73 | 71 | 0.0 | 2.0 | 0.00 | 0.00 | 0.00 | 96 | 1012.4 |
| 20260509072721 | 73 | 79 | 0.0 | 1.0 | 0.00 | 0.00 | 0.00 | 96 | 1012.6 |
| 20260509072218 | 73 | 67 | 0.0 | 0.0 | 0.00 | 0.00 | 0.00 | 96 | 1012.5 |
| 20260509071715 | 73 | 66 | 0.0 | 0.0 | 0.00 | 0.00 | 0.00 | 95 | 1012.9 |
| 20260509071212 | 73 | 66 | 0.0 | 0.0 | 0.00 | 0.00 | 0.00 | 95 | 1012.7 |
| 20260509070709 | 73 | 68 | 0.0 | 0.0 | 0.00 | 0.00 | 0.00 | 95 | 1012.7 |
| 20260509070205 | 73 | 78 | 0.0 | 1.0 | 0.00 | 0.00 | 0.00 | 95 | 1012.5 |
| 20260509065702 | 73 | 66 | 0.0 | 0.0 | 0.00 | 0.00 | 0.00 | 95 | 1012.6 |
| 20260509065158 | 73 | 71 | 0.0 | 0.0 | 0.00 | 0.00 | 0.00 | 95 | 1012.6 |
| 20260509064655 | 73 | 66 | 0.0 | 0.0 | 0.00 | 0.00 | 0.00 | 95 | 1012.6 |
| 20260509064152 | 73 | 67 | 0.0 | 0.0 | 0.00 | 0.00 | 0.00 | 95 | 1012.4 |
| 20260509063649 | 73 | 79 | 1.0 | 2.0 | 0.00 | 0.00 | 0.00 | 95 | 1012.3 |
| 20260509063145 | 73 | 92 | 1.0 | 2.0 | 0.00 | 0.00 | 0.00 | 95 | 1012.3 |
| 20260509062643 | 73 | 93 | 0.0 | 2.0 | 0.00 | 0.00 | 0.00 | 95 | 1012.4 |
| 20260509062140 | 73 | 79 | 0.0 | 3.0 | 0.00 | 0.00 | 0.00 | 94 | 1012.1 |
| 20260509061636 | 73 | 78 | 0.0 | 1.0 | 0.00 | 0.00 | 0.00 | 94 | 1012.1 |
| 20260509061134 | 73 | 104 | 2.0 | 4.0 | 0.00 | 0.00 | 0.00 | 94 | 1012.5 |
| 20260509060632 | 73 | 91 | 0.0 | 2.0 | 0.00 | 0.00 | 0.00 | 94 | 1012.2 |
| 20260509060127 | 73 | 76 | 1.0 | 2.0 | 0.00 | 0.00 | 0.00 | 94 | 1012.5 |
| 20260509055623 | 73 | 70 | 1.0 | 3.0 | 0.00 | 0.00 | 0.00 | 94 | 1012.6 |
| 20260509055119 | 73 | 81 | 1.0 | 1.0 | 0.00 | 0.00 | 0.00 | 94 | 1012.4 |
| 20260509054616 | 73 | 62 | 0.0 | 3.0 | 0.00 | 0.00 | 0.00 | 94 | 1012.2 |
| 20260509054114 | 73 | 74 | 0.0 | 1.0 | 0.00 | 0.00 | 0.00 | 94 | 1012.3 |
| 20260509053612 | 73 | 70 | 0.0 | 0.0 | 0.00 | 0.00 | 0.00 | 94 | 1012.3 |
| 20260509053109 | 73 | 63 | 0.0 | 1.0 | 0.00 | 0.00 | 0.00 | 94 | 1012.1 |
| 20260509052607 | 73 | 72 | 0.0 | 1.0 | 0.00 | 0.00 | 0.00 | 94 | 1012.0 |
| 20260509052104 | 73 | 72 | 0.0 | 2.0 | 0.00 | 0.00 | 0.00 | 94 | 1012.0 |
| 20260509051602 | 73 | 125 | 2.0 | 3.0 | 0.00 | 0.00 | 0.00 | 94 | 1012.0 |
| 20260509051059 | 73 | 93 | 2.0 | 6.0 | 0.00 | 0.00 | 0.00 | 94 | 1012.0 |
| 20260509050556 | 73 | 61 | 2.0 | 3.0 | 0.00 | 0.00 | 0.00 | 94 | 1011.9 |
| 20260509050052 | 73 | 93 | 2.0 | 3.0 | 0.00 | 0.02 | 0.02 | 94 | 1012.1 |
| 20260509045550 | 73 | 93 | 2.0 | 4.0 | 0.00 | 0.02 | 0.02 | 94 | 1012.1 |
| 20260509045046 | 73 | 187 | 2.0 | 6.0 | 0.00 | 0.02 | 0.02 | 94 | 1012.3 |
| 20260509044544 | 73 | 128 | 2.0 | 4.0 | 0.00 | 0.02 | 0.02 | 94 | 1012.1 |
| 20260509044041 | 73 | 91 | 1.0 | 2.0 | 0.00 | 0.02 | 0.02 | 94 | 1011.7 |
| 20260509043537 | 74 | 81 | 2.0 | 3.0 | 0.00 | 0.02 | 0.02 | 93 | 1011.9 |
| 20260509043033 | 74 | 87 | 1.0 | 4.0 | 0.00 | 0.02 | 0.02 | 93 | 1011.6 |
| 20260509042529 | 74 | 134 | 2.0 | 3.0 | 0.00 | 0.02 | 0.02 | 93 | 1011.7 |
| 20260509042026 | 74 | 115 | 2.0 | 4.0 | 0.00 | 0.02 | 0.02 | 92 | 1012.0 |
| 20260509041522 | 74 | 82 | 1.0 | 2.0 | 0.00 | 0.02 | 0.02 | 92 | 1011.7 |
| 20260509041020 | 74 | 92 | 0.0 | 2.0 | 0.00 | 0.02 | 0.02 | 91 | 1011.7 |
| 20260509040518 | 74 | 77 | 3.0 | 3.0 | 0.00 | 0.02 | 0.02 | 91 | 1011.8 |
| 20260509040015 | 74 | 73 | 1.0 | 3.0 | 0.00 | 0.02 | 0.02 | 91 | 1011.7 |
| 20260509035512 | 74 | 125 | 2.0 | 4.0 | 0.00 | 0.02 | 0.02 | 91 | 1011.8 |
| 20260509035008 | 74 | 135 | 2.0 | 3.0 | 0.00 | 0.02 | 0.02 | 90 | 1011.6 |
| 20260509034507 | 74 | 130 | 4.0 | 7.0 | 0.00 | 0.02 | 0.02 | 90 | 1011.6 |
| 20260509034003 | 75 | 77 | 1.0 | 2.0 | 0.00 | 0.02 | 0.02 | 90 | 1011.5 |
| 20260509033500 | 75 | 93 | 1.0 | 4.0 | 0.00 | 0.02 | 0.02 | 89 | 1011.7 |
| 20260509032957 | 75 | 81 | 0.0 | 6.0 | 0.00 | 0.02 | 0.02 | 89 | 1011.7 |
| 20260509032454 | 75 | 72 | 2.0 | 4.0 | 0.00 | 0.02 | 0.02 | 89 | 1011.6 |
| 20260509031952 | 75 | 67 | 2.0 | 4.0 | 0.00 | 0.02 | 0.02 | 89 | 1011.4 |
| 20260509031449 | 75 | 83 | 3.0 | 6.0 | 0.00 | 0.02 | 0.02 | 89 | 1011.5 |
| 20260509030946 | 75 | 86 | 1.0 | 4.0 | 0.00 | 0.02 | 0.02 | 89 | 1011.4 |
| 20260509030444 | 75 | 114 | 2.0 | 3.0 | 0.00 | 0.02 | 0.02 | 88 | 1011.5 |
| 20260509025941 | 75 | 97 | 2.0 | 2.0 | 0.00 | 0.02 | 0.02 | 88 | 1011.4 |
| 20260509025437 | 75 | 106 | 2.0 | 2.0 | 0.00 | 0.02 | 0.02 | 88 | 1011.5 |
| 20260509024932 | 75 | 114 | 2.0 | 4.0 | 0.00 | 0.02 | 0.02 | 88 | 1011.3 |
| 20260509024428 | 75 | 99 | 2.0 | 3.0 | 0.00 | 0.02 | 0.02 | 88 | 1011.4 |
| 20260509023925 | 75 | 64 | 1.0 | 4.0 | 0.00 | 0.02 | 0.02 | 88 | 1011.4 |
| 20260509023423 | 75 | 125 | 2.0 | 3.0 | 0.00 | 0.02 | 0.02 | 88 | 1011.2 |
| 20260509022919 | 76 | 83 | 1.0 | 2.0 | 0.00 | 0.02 | 0.02 | 87 | 1011.4 |
| 20260509022416 | 76 | 89 | 3.0 | 4.0 | 0.00 | 0.02 | 0.02 | 87 | 1011.4 |
| 20260509021914 | 76 | 99 | 2.0 | 4.0 | 0.00 | 0.02 | 0.02 | 87 | 1011.3 |
| 20260509021410 | 76 | 78 | 0.0 | 1.0 | 0.00 | 0.02 | 0.02 | 87 | 1011.2 |
| 20260509020908 | 76 | 73 | 0.0 | 2.0 | 0.00 | 0.02 | 0.02 | 86 | 1011.3 |
| 20260509020406 | 76 | 79 | 1.0 | 2.0 | 0.00 | 0.02 | 0.02 | 86 | 1011.3 |
| 20260509015903 | 76 | 113 | 1.0 | 2.0 | 0.00 | 0.02 | 0.02 | 86 | 1011.1 |
| 20260509015401 | 76 | 79 | 0.0 | 2.0 | 0.00 | 0.02 | 0.02 | 86 | 1011.2 |
| 20260509014857 | 76 | 81 | 0.0 | 1.0 | 0.00 | 0.02 | 0.02 | 86 | 1011.0 |
| 20260509014354 | 76 | 76 | 0.0 | 1.0 | 0.00 | 0.02 | 0.02 | 86 | 1011.1 |
| 20260509013851 | 76 | 70 | 0.0 | 1.0 | 0.00 | 0.02 | 0.02 | 86 | 1011.4 |
| 20260509013348 | 77 | 80 | 0.0 | 2.0 | 0.00 | 0.02 | 0.02 | 86 | 1011.1 |
| 20260509012843 | 77 | 85 | 0.0 | 1.0 | 0.00 | 0.02 | 0.02 | 86 | 1011.2 |
| 20260509012340 | 77 | 84 | 0.0 | 1.0 | 0.00 | 0.02 | 0.02 | 86 | 1011.2 |
| 20260509011838 | 77 | 65 | 1.0 | 2.0 | 0.00 | 0.02 | 0.02 | 86 | 1010.9 |
| 20260509011335 | 77 | 79 | 0.0 | 2.0 | 0.00 | 0.02 | 0.02 | 85 | 1011.0 |
| 20260509010833 | 77 | 82 | 0.0 | 1.0 | 0.00 | 0.02 | 0.02 | 86 | 1010.8 |
| 20260509010330 | 77 | 69 | 0.0 | 2.0 | 0.00 | 0.02 | 0.02 | 86 | 1010.9 |
| 20260509005827 | 77 | 90 | 1.0 | 2.0 | 0.00 | 0.02 | 0.02 | 85 | 1010.9 |
| 20260509005325 | 77 | 117 | 2.0 | 2.0 | 0.00 | 0.02 | 0.02 | 85 | 1010.9 |
| 20260509004825 | 77 | 109 | 1.0 | 2.0 | 0.00 | 0.02 | 0.02 | 85 | 1010.7 |
| 20260509004322 | 77 | 73 | 1.0 | 2.0 | 0.00 | 0.02 | 0.02 | 84 | 1010.6 |
| 20260509003820 | 77 | 106 | 2.0 | 3.0 | 0.00 | 0.02 | 0.02 | 83 | 1010.6 |
| 20260509003317 | 77 | 104 | 1.0 | 2.0 | 0.00 | 0.02 | 0.02 | 83 | 1010.8 |
| 20260509002814 | 78 | 78 | 0.0 | 2.0 | 0.00 | 0.02 | 0.02 | 83 | 1010.9 |
| 20260509002312 | 78 | 79 | 1.0 | 4.0 | 0.00 | 0.02 | 0.02 | 83 | 1010.9 |
| 20260509001809 | 78 | 88 | 1.0 | 3.0 | 0.00 | 0.02 | 0.02 | 83 | 1010.8 |
| 20260509001305 | 78 | 73 | 0.0 | 2.0 | 0.00 | 0.02 | 0.02 | 83 | 1010.8 |
| 20260509000803 | 78 | 89 | 2.0 | 4.0 | 0.00 | 0.02 | 0.02 | 83 | 1010.9 |
| 20260509000300 | 78 | 93 | 2.0 | 3.0 | 0.00 | 0.02 | 0.02 | 82 | 1010.9 |
| 20260508235756 | 78 | 73 | 1.0 | 2.0 | 0.00 | 0.02 | 0.02 | 82 | 1010.6 |
| 20260508235253 | 78 | 153 | 1.0 | 2.0 | 0.00 | 0.02 | 0.02 | 81 | 1010.6 |
| 20260508234751 | 78 | 76 | 0.0 | 4.0 | 0.00 | 0.02 | 0.02 | 81 | 1010.7 |
| 20260508234247 | 79 | 79 | 2.0 | 3.0 | 0.00 | 0.02 | 0.02 | 81 | 1010.8 |
| 20260508233746 | 79 | 79 | 1.0 | 3.0 | 0.00 | 0.02 | 0.02 | 80 | 1010.8 |
| 20260508233244 | 79 | 101 | 4.0 | 6.0 | 0.00 | 0.02 | 0.02 | 80 | 1010.8 |
| 20260508232741 | 79 | 104 | 1.0 | 2.0 | 0.00 | 0.02 | 0.02 | 81 | 1010.7 |
| 20260508232238 | 79 | 65 | 2.0 | 2.0 | 0.00 | 0.02 | 0.02 | 80 | 1010.8 |
| 20260508231736 | 79 | 110 | 2.0 | 3.0 | 0.00 | 0.02 | 0.02 | 80 | 1010.9 |
| 20260508231232 | 79 | 88 | 1.0 | 2.0 | 0.00 | 0.02 | 0.02 | 80 | 1010.8 |
| 20260508230729 | 79 | 77 | 1.0 | 4.0 | 0.00 | 0.02 | 0.02 | 79 | 1010.7 |
| 20260508230225 | 80 | 93 | 1.0 | 4.0 | 0.00 | 0.02 | 0.02 | 79 | 1010.6 |
| 20260508225723 | 79 | 90 | 2.0 | 3.0 | 0.00 | 0.02 | 0.02 | 79 | 1010.5 |
| 20260508225219 | 79 | 92 | 2.0 | 3.0 | 0.00 | 0.02 | 0.02 | 80 | 1010.8 |
| 20260508224717 | 79 | 69 | 1.0 | 1.0 | 0.00 | 0.02 | 0.02 | 79 | 1010.9 |
| 20260508224215 | 79 | 111 | 1.0 | 1.0 | 0.00 | 0.02 | 0.02 | 79 | 1011.0 |
| 20260508223712 | 79 | 49 | 0.0 | 2.0 | 0.00 | 0.02 | 0.02 | 79 | 1011.0 |
| 20260508223209 | 79 | 77 | 1.0 | 3.0 | 0.00 | 0.02 | 0.02 | 78 | 1010.9 |
| 20260508222706 | 80 | 91 | 1.0 | 2.0 | 0.00 | 0.02 | 0.02 | 77 | 1011.1 |
| 20260508222204 | 80 | 76 | 1.0 | 1.0 | 0.00 | 0.02 | 0.02 | 77 | 1011.0 |
| 20260508221700 | 80 | 91 | 1.0 | 3.0 | 0.00 | 0.02 | 0.02 | 76 | 1010.8 |
| 20260508221155 | 80 | 76 | 1.0 | 2.0 | 0.00 | 0.02 | 0.02 | 75 | 1010.9 |
| 20260508220652 | 81 | 130 | 1.0 | 2.0 | 0.00 | 0.02 | 0.02 | 75 | 1010.9 |
| 20260508220149 | 81 | 93 | 1.0 | 2.0 | 0.00 | 0.02 | 0.02 | 75 | 1010.8 |
| 20260508215645 | 81 | 70 | 0.0 | 1.0 | 0.00 | 0.02 | 0.02 | 74 | 1011.0 |
| 20260508215142 | 81 | 67 | 0.0 | 1.0 | 0.00 | 0.02 | 0.02 | 75 | 1010.8 |
| 20260508214639 | 81 | 92 | 1.0 | 3.0 | 0.00 | 0.02 | 0.02 | 75 | 1011.0 |
| 20260508214137 | 81 | 89 | 2.0 | 2.0 | 0.00 | 0.02 | 0.02 | 74 | 1011.1 |
| 20260508213633 | 81 | 72 | 0.0 | 2.0 | 0.00 | 0.02 | 0.02 | 74 | 1011.1 |
| 20260508213129 | 82 | 90 | 2.0 | 2.0 | 0.00 | 0.02 | 0.02 | 71 | 1011.1 |
| 20260508212626 | 82 | 79 | 0.0 | 1.0 | 0.00 | 0.02 | 0.02 | 73 | 1011.1 |
| 20260508212122 | 82 | 71 | 0.0 | 1.0 | 0.00 | 0.02 | 0.02 | 72 | 1011.2 |
| 20260508211618 | 82 | 70 | 0.0 | 0.0 | 0.00 | 0.02 | 0.02 | 73 | 1011.3 |
| 20260508211114 | 81 | 64 | 0.0 | 0.0 | 0.00 | 0.02 | 0.02 | 74 | 1011.4 |
| 20260508210611 | 81 | 59 | 0.0 | 1.0 | 0.00 | 0.02 | 0.02 | 73 | 1011.6 |
| 20260508210109 | 81 | 62 | 0.0 | 1.0 | 0.00 | 0.02 | 0.02 | 74 | 1011.6 |
| 20260508205606 | 81 | 79 | 2.0 | 3.0 | 0.00 | 0.02 | 0.02 | 72 | 1011.7 |
| 20260508205102 | 82 | 80 | 0.0 | 2.0 | 0.00 | 0.02 | 0.02 | 72 | 1011.9 |
| 20260508204558 | 83 | 38 | 1.0 | 2.0 | 0.00 | 0.02 | 0.02 | 73 | 1011.6 |
| 20260508204054 | 82 | 76 | 0.0 | 2.0 | 0.00 | 0.02 | 0.02 | 73 | 1011.7 |
| 20260508203551 | 82 | 82 | 0.0 | 1.0 | 0.00 | 0.02 | 0.02 | 73 | 1012.0 |
| 20260508203046 | 81 | 103 | 2.0 | 2.0 | 0.00 | 0.02 | 0.02 | 73 | 1012.1 |
| 20260508202544 | 80 | 76 | 0.0 | 1.0 | 0.00 | 0.02 | 0.02 | 74 | 1011.9 |
| 20260508202041 | 80 | 84 | 1.0 | 2.0 | 0.00 | 0.02 | 0.02 | 74 | 1012.1 |
| 20260508201537 | 79 | 79 | 0.0 | 2.0 | 0.00 | 0.02 | 0.02 | 76 | 1012.2 |
| 20260508201034 | 79 | 77 | 1.0 | 3.0 | 0.00 | 0.02 | 0.02 | 75 | 1012.2 |
| 20260508200531 | 79 | 67 | 0.0 | 2.0 | 0.00 | 0.02 | 0.02 | 76 | 1012.2 |
| 20260508200027 | 80 | 65 | 0.0 | 1.0 | 0.00 | 0.02 | 0.02 | 76 | 1012.5 |
| 20260508195524 | 80 | 103 | 2.0 | 3.0 | 0.00 | 0.02 | 0.02 | 73 | 1012.5 |
| 20260508195020 | 81 | 86 | 0.0 | 1.0 | 0.00 | 0.02 | 0.02 | 73 | 1012.4 |
| 20260508194517 | 80 | 67 | 0.0 | 1.0 | 0.00 | 0.02 | 0.02 | 75 | 1012.4 |
| 20260508194014 | 81 | 66 | 1.0 | 1.0 | 0.00 | 0.02 | 0.02 | 72 | 1012.4 |
| 20260508193510 | 81 | 83 | 1.0 | 2.0 | 0.00 | 0.02 | 0.02 | 74 | 1012.5 |
| 20260508193007 | 81 | 61 | 0.0 | 2.0 | 0.00 | 0.02 | 0.02 | 74 | 1012.6 |
| 20260508192504 | 81 | 46 | 2.0 | 2.0 | 0.00 | 0.02 | 0.02 | 74 | 1012.5 |
| 20260508192001 | 80 | 29 | 2.0 | 3.0 | 0.00 | 0.02 | 0.02 | 76 | 1012.5 |
| 20260508191458 | 79 | 74 | 0.0 | 2.0 | 0.00 | 0.02 | 0.02 | 77 | 1012.5 |
| 20260508190954 | 79 | 66 | 0.0 | 1.0 | 0.00 | 0.02 | 0.02 | 75 | 1012.9 |
| 20260508190452 | 79 | 63 | 1.0 | 1.0 | 0.00 | 0.02 | 0.02 | 76 | 1012.8 |
| 20260508185948 | 80 | 66 | 0.0 | 1.0 | 0.00 | 0.02 | 0.02 | 75 | 1012.9 |
| 20260508185446 | 79 | 58 | 1.0 | 1.0 | 0.00 | 0.02 | 0.02 | 77 | 1013.0 |
| 20260508184943 | 79 | 94 | 1.0 | 2.0 | 0.00 | 0.02 | 0.02 | 75 | 1013.2 |
| 20260508184440 | 79 | 74 | 0.0 | 1.0 | 0.00 | 0.02 | 0.02 | 74 | 1013.3 |
| 20260508183937 | 78 | 65 | 0.0 | 1.0 | 0.00 | 0.02 | 0.02 | 78 | 1013.4 |
| 20260508183433 | 78 | 116 | 1.0 | 2.0 | 0.00 | 0.02 | 0.02 | 76 | 1013.2 |
| 20260508182928 | 77 | 69 | 1.0 | 2.0 | 0.00 | 0.02 | 0.02 | 77 | 1013.4 |
| 20260508182426 | 77 | 55 | 1.0 | 2.0 | 0.00 | 0.02 | 0.02 | 78 | 1013.6 |
| 20260508181926 | 76 | 69 | 1.0 | 2.0 | 0.00 | 0.02 | 0.02 | 79 | 1013.5 |
| 20260508181423 | 76 | 97 | 2.0 | 3.0 | 0.00 | 0.02 | 0.02 | 78 | 1013.5 |
| 20260508180921 | 75 | 78 | 1.0 | 2.0 | 0.00 | 0.02 | 0.02 | 80 | 1013.8 |
| 20260508180417 | 74 | 92 | 1.0 | 2.0 | 0.00 | 0.02 | 0.02 | 81 | 1013.7 |
| 20260508175913 | 75 | 99 | 1.0 | 2.0 | 0.00 | 0.02 | 0.02 | 81 | 1013.9 |
| 20260508175410 | 75 | 74 | 0.0 | 3.0 | 0.00 | 0.02 | 0.02 | 81 | 1013.9 |
| 20260508174908 | 75 | 67 | 0.0 | 1.0 | 0.00 | 0.02 | 0.02 | 82 | 1013.9 |
| 20260508174405 | 74 | 68 | 0.0 | 1.0 | 0.00 | 0.02 | 0.02 | 82 | 1014.0 |
| 20260508173902 | 73 | 77 | 1.0 | 1.0 | 0.00 | 0.02 | 0.02 | 82 | 1014.3 |